createdAt,value
2019-05-01T00:00:52.222Z,12.00
2019-05-01T00:03:22.443Z,12.00
2019-05-01T00:05:55.553Z,12.10
2019-05-01T00:08:24.122Z,12.10
2019-05-01T00:10:52.691Z,12.10
2019-05-01T00:13:21.221Z,12.10
2019-05-01T00:15:51.174Z,12.10
2019-05-01T00:18:19.720Z,12.10
2019-05-01T00:20:48.302Z,12.20
2019-05-01T00:23:16.791Z,12.20
2019-05-01T00:25:45.347Z,12.20
2019-05-01T00:28:13.965Z,12.20
2019-05-01T00:30:42.633Z,12.20
2019-05-01T00:33:11.246Z,12.30
2019-05-01T00:35:39.829Z,12.30
2019-05-01T00:38:08.382Z,12.30
2019-05-01T00:40:37.025Z,12.30
2019-05-01T00:43:05.535Z,12.30
2019-05-01T00:45:34.051Z,12.30
2019-05-01T00:48:02.601Z,12.30
2019-05-01T00:50:31.087Z,12.20
2019-05-01T00:52:59.636Z,12.20
2019-05-01T00:55:38.809Z,12.20
2019-05-01T00:58:27.303Z,12.20
2019-05-01T01:01:00.545Z,12.30
2019-05-01T01:03:29.080Z,12.20
2019-05-01T01:05:57.662Z,12.30
2019-05-01T01:08:26.222Z,12.30
2019-05-01T01:10:54.801Z,12.40
2019-05-01T01:13:23.289Z,12.40
2019-05-01T01:15:51.777Z,12.40
2019-05-01T01:18:20.254Z,12.40
2019-05-01T01:20:48.791Z,12.40
2019-05-01T01:23:17.460Z,12.40
2019-05-01T01:25:46.154Z,12.40
2019-05-01T01:28:14.885Z,12.40
2019-05-01T01:30:55.689Z,12.40
2019-05-01T01:33:14.164Z,12.40
2019-05-01T01:35:42.745Z,12.40
2019-05-01T01:38:11.365Z,12.40
2019-05-01T01:40:40.135Z,12.40
2019-05-01T01:43:27.052Z,12.40
2019-05-01T01:46:00.328Z,12.50
2019-05-01T01:48:30.772Z,12.50
2019-05-01T01:50:59.443Z,12.50
2019-05-01T01:53:28.673Z,12.50
2019-05-01T01:55:57.368Z,12.60
2019-05-01T01:58:26.188Z,12.60
2019-05-01T02:01:12.300Z,12.60
2019-05-01T02:03:42.415Z,12.60
2019-05-01T02:06:11.366Z,12.60
2019-05-01T02:08:40.000Z,12.60
2019-05-01T02:11:08.711Z,12.60
2019-05-01T02:13:37.281Z,12.70
2019-05-01T02:16:05.785Z,12.70
2019-05-01T02:18:34.366Z,12.60
2019-05-01T02:21:03.226Z,12.70
2019-05-01T02:23:31.820Z,12.70
2019-05-01T02:26:00.813Z,12.70
2019-05-01T02:28:33.854Z,12.70
2019-05-01T02:31:07.543Z,12.70
2019-05-01T02:33:41.231Z,12.80
2019-05-01T02:36:11.944Z,12.70
2019-05-01T02:38:43.141Z,12.80
2019-05-01T02:41:12.475Z,12.80
2019-05-01T02:43:44.144Z,12.80
2019-05-01T02:46:15.603Z,12.80
2019-05-01T02:48:47.206Z,12.80
2019-05-01T02:51:18.074Z,12.80
2019-05-01T02:53:48.812Z,12.80
2019-05-01T02:56:31.741Z,12.80
2019-05-01T02:59:02.428Z,12.80
2019-05-01T03:01:45.395Z,12.70
2019-05-01T03:04:02.255Z,12.70
2019-05-01T03:06:32.271Z,12.70
2019-05-01T03:09:05.033Z,12.60
2019-05-01T03:11:35.067Z,12.60
2019-05-01T03:14:04.830Z,12.70
2019-05-01T03:16:35.645Z,12.70
2019-05-01T03:19:19.332Z,12.60
2019-05-01T03:21:49.715Z,12.60
2019-05-01T03:24:23.059Z,12.60
2019-05-01T03:26:51.736Z,12.60
2019-05-01T03:29:20.865Z,12.70
2019-05-01T03:32:14.403Z,12.60
2019-05-01T03:34:19.976Z,12.60
2019-05-01T03:36:48.828Z,12.60
2019-05-01T03:39:17.856Z,12.50
2019-05-01T03:41:47.299Z,12.60
2019-05-01T03:44:16.475Z,12.60
2019-05-01T03:46:45.370Z,12.60
2019-05-01T03:49:14.591Z,12.60
2019-05-01T03:51:43.730Z,12.50
2019-05-01T03:54:13.440Z,12.60
2019-05-01T03:56:42.488Z,12.60
2019-05-01T03:59:11.059Z,12.60
2019-05-01T04:01:47.500Z,12.60
2019-05-01T04:04:20.672Z,12.60
2019-05-01T04:06:49.228Z,12.60
2019-05-01T04:09:17.876Z,12.60
2019-05-01T04:11:46.441Z,12.60
2019-05-01T04:14:15.492Z,12.60
2019-05-01T04:16:45.682Z,12.60
2019-05-01T04:19:14.382Z,12.60
2019-05-01T04:21:50.287Z,12.50
2019-05-01T04:24:19.195Z,12.50
2019-05-01T04:26:48.096Z,12.40
2019-05-01T04:29:18.485Z,12.50
2019-05-01T04:32:03.750Z,12.40
2019-05-01T04:34:34.327Z,12.30
2019-05-01T04:37:05.118Z,12.40
2019-05-01T04:39:33.918Z,12.40
2019-05-01T04:42:02.465Z,12.40
2019-05-01T04:44:31.223Z,12.30
2019-05-01T04:47:00.043Z,12.30
2019-05-01T04:49:28.951Z,12.30
2019-05-01T04:51:57.963Z,12.40
2019-05-01T04:54:26.839Z,12.30
2019-05-01T04:56:55.783Z,12.30
2019-05-01T04:59:24.351Z,12.30
2019-05-01T05:01:57.683Z,12.40
2019-05-01T05:04:27.290Z,12.40
2019-05-01T05:06:56.327Z,12.40
2019-05-01T05:09:39.396Z,12.40
2019-05-01T05:12:18.984Z,12.40
2019-05-01T05:14:52.677Z,12.40
2019-05-01T05:17:22.873Z,12.40
2019-05-01T05:19:51.558Z,12.40
2019-05-01T05:22:20.180Z,12.30
2019-05-01T05:24:48.831Z,12.30
2019-05-01T05:27:17.961Z,12.20
2019-05-01T05:29:48.713Z,12.20
2019-05-01T05:32:19.187Z,12.30
2019-05-01T05:34:49.023Z,12.20
2019-05-01T05:37:26.853Z,12.30
2019-05-01T05:39:59.852Z,12.40
2019-05-01T05:42:28.852Z,12.60
2019-05-01T05:44:57.644Z,12.80
2019-05-01T05:47:26.433Z,13.00
2019-05-01T05:49:55.148Z,13.10
2019-05-01T05:52:32.756Z,13.20
2019-05-01T05:55:08.083Z,13.20
2019-05-01T05:57:41.602Z,13.20
2019-05-01T06:00:11.906Z,13.30
2019-05-01T06:02:53.469Z,13.30
2019-05-01T06:05:26.756Z,13.10
2019-05-01T06:08:14.740Z,13.10
2019-05-01T06:10:47.167Z,13.10
2019-05-01T06:13:21.950Z,13.00
2019-05-01T06:16:05.044Z,13.10
2019-05-01T06:18:39.302Z,13.10
2019-05-01T06:21:12.833Z,13.20
2019-05-01T06:23:52.739Z,13.20
2019-05-01T06:26:27.361Z,13.10
2019-05-01T06:29:00.733Z,13.10
2019-05-01T06:31:26.613Z,13.10
2019-05-01T06:33:55.326Z,13.20
2019-05-01T06:36:24.352Z,13.20
2019-05-01T06:38:54.134Z,13.40
2019-05-01T06:41:23.213Z,13.50
2019-05-01T06:43:56.972Z,13.60
2019-05-01T06:46:29.703Z,13.80
2019-05-01T06:49:08.694Z,14.30
2019-05-01T06:51:47.970Z,14.40
2019-05-01T06:54:17.622Z,14.50
2019-05-01T06:56:47.187Z,14.50
2019-05-01T06:59:18.039Z,14.60
2019-05-01T07:01:48.065Z,14.70
2019-05-01T07:04:16.773Z,14.70
2019-05-01T07:06:45.566Z,15.40
2019-05-01T07:09:27.102Z,15.00
2019-05-01T07:11:47.389Z,14.80
2019-05-01T07:14:16.481Z,14.60
2019-05-01T07:16:45.902Z,14.60
2019-05-01T07:19:15.705Z,14.50
2019-05-01T07:21:44.220Z,14.40
2019-05-01T07:24:12.861Z,14.40
2019-05-01T07:26:43.957Z,14.40
2019-05-01T07:29:13.486Z,14.40
2019-05-01T07:31:42.127Z,14.40
2019-05-01T07:34:16.794Z,14.40
2019-05-01T07:36:41.034Z,14.50
2019-05-01T07:39:14.246Z,14.70
2019-05-01T07:41:40.044Z,14.60
2019-05-01T07:44:16.850Z,14.50
2019-05-01T07:47:05.328Z,14.30
2019-05-01T07:49:52.722Z,14.20
2019-05-01T07:52:19.982Z,14.20
2019-05-01T07:54:49.020Z,14.20
2019-05-01T07:57:17.976Z,14.20
2019-05-01T07:59:46.826Z,14.30
2019-05-01T08:02:15.477Z,14.30
2019-05-01T08:04:44.043Z,14.30
2019-05-01T08:07:12.695Z,14.30
2019-05-01T08:09:41.302Z,14.30
2019-05-01T08:12:09.828Z,14.50
2019-05-01T08:14:38.444Z,14.70
2019-05-01T08:17:07.087Z,15.10
2019-05-01T08:19:40.742Z,15.70
2019-05-01T08:22:11.042Z,15.60
2019-05-01T08:24:39.650Z,15.70
2019-05-01T08:27:10.010Z,15.80
2019-05-01T08:29:48.955Z,15.90
2019-05-01T08:32:39.186Z,16.00
2019-05-01T08:35:12.381Z,16.10
2019-05-01T08:37:41.003Z,16.00
2019-05-01T08:40:09.915Z,16.20
2019-05-01T08:42:42.570Z,16.50
2019-05-01T08:45:10.708Z,16.90
2019-05-01T08:47:40.973Z,17.40
2019-05-01T08:50:24.647Z,19.00
2019-05-01T08:52:50.317Z,20.70
2019-05-01T08:55:18.918Z,21.60
2019-05-01T08:57:47.585Z,22.70
2019-05-01T09:00:16.329Z,23.80
2019-05-01T09:02:44.901Z,23.70
2019-05-01T09:05:28.269Z,22.90
2019-05-01T09:07:51.268Z,23.80
2019-05-01T09:10:21.634Z,25.00
2019-05-01T09:12:48.779Z,23.80
2019-05-01T09:15:17.843Z,24.30
2019-05-01T09:17:46.482Z,25.10
2019-05-01T09:20:16.761Z,25.20
2019-05-01T09:22:45.832Z,25.40
2019-05-01T09:25:16.194Z,25.80
2019-05-01T09:27:46.896Z,26.80
2019-05-01T09:30:26.774Z,27.50
2019-05-01T09:32:55.880Z,28.20
2019-05-01T09:35:24.657Z,28.90
2019-05-01T09:37:53.239Z,29.40
2019-05-01T09:40:22.034Z,30.00
2019-05-01T09:42:54.838Z,30.10
2019-05-01T09:45:23.791Z,30.60
2019-05-01T09:47:52.371Z,31.00
2019-05-01T09:50:25.735Z,31.10
2019-05-01T09:52:59.727Z,30.30
2019-05-01T09:55:36.971Z,30.40
2019-05-01T09:58:07.154Z,29.70
2019-05-01T10:00:35.862Z,29.40
2019-05-01T10:03:04.841Z,30.40
2019-05-01T10:05:33.479Z,30.80
2019-05-01T10:08:04.165Z,31.30
2019-05-01T10:10:32.293Z,31.30
2019-05-01T10:13:02.440Z,31.60
2019-05-01T10:15:31.097Z,31.80
2019-05-01T10:17:59.654Z,32.30
2019-05-01T10:20:30.151Z,32.20
2019-05-01T10:23:00.272Z,32.40
2019-05-01T10:25:28.881Z,31.60
2019-05-01T10:27:59.084Z,31.10
2019-05-01T10:30:44.564Z,30.80
2019-05-01T10:33:14.856Z,30.90
2019-05-01T10:35:45.377Z,31.10
2019-05-01T10:38:13.944Z,31.20
2019-05-01T10:40:42.499Z,31.50
2019-05-01T10:43:11.081Z,31.90
2019-05-01T10:45:39.700Z,31.80
2019-05-01T10:48:08.270Z,32.30
2019-05-01T10:50:36.892Z,32.40
2019-05-01T10:53:05.599Z,32.60
2019-05-01T10:55:34.310Z,31.90
2019-05-01T10:58:03.455Z,32.00
2019-05-01T11:00:32.368Z,32.20
2019-05-01T11:03:00.944Z,32.00
2019-05-01T11:05:29.630Z,32.10
2019-05-01T11:07:59.861Z,32.00
2019-05-01T11:10:28.537Z,32.30
2019-05-01T11:12:58.785Z,33.00
2019-05-01T11:15:27.445Z,32.30
2019-05-01T11:17:56.050Z,31.80
2019-05-01T11:20:24.757Z,31.00
2019-05-01T11:22:53.446Z,30.60
2019-05-01T11:25:22.330Z,30.50
2019-05-01T11:27:50.975Z,30.00
2019-05-01T11:30:19.719Z,29.90
2019-05-01T11:32:59.194Z,29.60
2019-05-01T11:35:45.779Z,29.30
2019-05-01T11:38:16.116Z,29.10
2019-05-01T11:40:50.587Z,28.60
2019-05-01T11:43:19.146Z,28.50
2019-05-01T11:45:47.747Z,28.10
2019-05-01T11:48:16.340Z,27.70
2019-05-01T11:50:47.973Z,27.20
2019-05-01T11:53:18.112Z,26.70
2019-05-01T11:55:46.716Z,26.20
2019-05-01T11:58:15.290Z,26.00
2019-05-01T12:00:47.083Z,26.00
2019-05-01T12:03:17.712Z,25.90
2019-05-01T12:05:49.761Z,25.60
2019-05-01T12:08:18.192Z,25.60
2019-05-01T12:10:46.772Z,25.40
2019-05-01T12:13:15.354Z,25.20
2019-05-01T12:15:45.659Z,25.40
2019-05-01T12:18:14.254Z,25.30
2019-05-01T12:20:42.935Z,25.00
2019-05-01T12:23:11.532Z,24.90
2019-05-01T12:25:43.116Z,24.80
2019-05-01T12:28:11.688Z,24.80
2019-05-01T12:30:40.437Z,24.60
2019-05-01T12:33:09.041Z,24.60
2019-05-01T12:35:39.199Z,24.40
2019-05-01T12:38:07.833Z,24.40
2019-05-01T12:40:36.480Z,24.20
2019-05-01T12:43:05.074Z,24.00
2019-05-01T12:45:33.748Z,24.10
2019-05-01T12:48:03.319Z,23.90
2019-05-01T12:50:31.944Z,23.80
2019-05-01T12:53:14.408Z,23.60
2019-05-01T12:55:50.078Z,23.60
2019-05-01T12:58:18.638Z,23.70
2019-05-01T13:00:55.846Z,23.70
2019-05-01T13:03:24.423Z,23.60
2019-05-01T13:05:53.081Z,23.30
2019-05-01T13:08:21.732Z,23.00
2019-05-01T13:10:50.554Z,22.60
2019-05-01T13:13:19.198Z,22.40
2019-05-01T13:15:47.818Z,22.40
2019-05-01T13:18:16.470Z,22.20
2019-05-01T13:20:45.067Z,22.10
2019-05-01T13:23:13.699Z,22.10
2019-05-01T13:25:42.710Z,21.80
2019-05-01T13:28:18.904Z,21.90
2019-05-01T13:30:49.150Z,21.80
2019-05-01T13:33:17.642Z,21.70
2019-05-01T13:35:46.269Z,21.50
2019-05-01T13:38:14.849Z,21.40
2019-05-01T13:40:43.569Z,21.20
2019-05-01T13:43:12.223Z,21.10
2019-05-01T13:45:40.845Z,21.10
2019-05-01T13:48:09.503Z,21.00
2019-05-01T13:50:38.150Z,21.00
2019-05-01T13:53:06.791Z,20.90
2019-05-01T13:55:35.451Z,20.80
2019-05-01T13:58:03.970Z,20.70
2019-05-01T14:00:32.725Z,20.60
2019-05-01T14:03:01.343Z,20.50
2019-05-01T14:05:29.921Z,20.60
2019-05-01T14:07:58.653Z,20.70
2019-05-01T14:10:27.239Z,20.60
2019-05-01T14:12:55.724Z,20.60
2019-05-01T14:15:24.338Z,20.50
2019-05-01T14:17:52.920Z,20.30
2019-05-01T14:20:34.678Z,20.30
2019-05-01T14:23:05.090Z,20.20
2019-05-01T14:25:51.648Z,20.00
2019-05-01T14:28:20.265Z,19.90
2019-05-01T14:30:48.939Z,19.80
2019-05-01T14:33:17.572Z,19.80
2019-05-01T14:35:46.175Z,19.80
2019-05-01T14:38:14.845Z,19.60
2019-05-01T14:40:43.464Z,19.60
2019-05-01T14:43:11.986Z,19.50
2019-05-01T14:45:41.793Z,19.40
2019-05-01T14:48:10.913Z,19.50
2019-05-01T14:50:39.506Z,19.50
2019-05-01T14:53:08.205Z,19.50
2019-05-01T14:55:36.957Z,19.30
2019-05-01T14:58:05.590Z,19.30
2019-05-01T15:00:34.240Z,19.20
2019-05-01T15:03:02.912Z,19.20
2019-05-01T15:05:31.523Z,19.20
2019-05-01T15:08:00.398Z,19.00
2019-05-01T15:10:29.041Z,18.90
2019-05-01T15:13:02.613Z,18.80
2019-05-01T15:15:44.814Z,18.70
2019-05-01T15:18:24.187Z,18.60
2019-05-01T15:20:52.825Z,18.60
2019-05-01T15:23:21.572Z,18.70
2019-05-01T15:25:50.223Z,18.70
2019-05-01T15:28:18.875Z,18.80
2019-05-01T15:30:47.450Z,18.80
2019-05-01T15:33:16.233Z,18.80
2019-05-01T15:35:44.783Z,18.80
2019-05-01T15:38:13.420Z,18.80
2019-05-01T15:40:59.869Z,18.90
2019-05-01T15:43:39.080Z,18.90
2019-05-01T15:46:07.654Z,18.90
2019-05-01T15:48:36.380Z,18.90
2019-05-01T15:51:05.014Z,18.90
2019-05-01T15:53:33.631Z,18.90
2019-05-01T15:56:02.220Z,18.80
2019-05-01T15:58:30.818Z,18.70
2019-05-01T16:00:59.400Z,18.60
2019-05-01T16:03:28.004Z,18.50
2019-05-01T16:05:56.562Z,18.40
2019-05-01T16:08:25.082Z,18.40
2019-05-01T16:11:01.551Z,18.30
2019-05-01T16:13:30.209Z,18.30
2019-05-01T16:15:58.772Z,18.10
2019-05-01T16:18:27.411Z,18.10
2019-05-01T16:20:55.993Z,18.00
2019-05-01T16:23:24.612Z,18.00
2019-05-01T16:25:53.141Z,18.00
2019-05-01T16:28:21.685Z,17.90
2019-05-01T16:30:50.311Z,17.90
2019-05-01T16:33:18.982Z,17.80
2019-05-01T16:35:47.552Z,17.80
2019-05-01T16:38:23.117Z,17.70
2019-05-01T16:40:58.818Z,17.70
2019-05-01T16:43:27.428Z,17.70
2019-05-01T16:45:55.993Z,17.60
2019-05-01T16:48:24.592Z,17.60
2019-05-01T16:50:53.220Z,17.60
2019-05-01T16:53:23.456Z,17.60
2019-05-01T16:55:53.610Z,17.60
2019-05-01T16:58:22.452Z,17.60
2019-05-01T17:01:03.539Z,17.50
2019-05-01T17:03:49.634Z,17.50
2019-05-01T17:06:28.768Z,17.40
2019-05-01T17:09:02.759Z,17.30
2019-05-01T17:11:34.017Z,17.30
2019-05-01T17:14:02.804Z,17.20
2019-05-01T17:16:31.511Z,17.20
2019-05-01T17:19:01.332Z,17.10
2019-05-01T17:21:30.098Z,17.00
2019-05-01T17:24:01.046Z,17.00
2019-05-01T17:26:29.667Z,16.90
2019-05-01T17:28:58.324Z,16.90
2019-05-01T17:31:28.799Z,16.80
2019-05-01T17:33:57.502Z,16.80
2019-05-01T17:36:26.154Z,16.70
2019-05-01T17:38:54.812Z,16.70
2019-05-01T17:41:27.170Z,16.60
2019-05-01T17:43:56.600Z,16.50
2019-05-01T17:46:24.533Z,16.50
2019-05-01T17:48:53.194Z,16.40
2019-05-01T17:51:21.748Z,16.40
2019-05-01T17:53:50.364Z,16.30
2019-05-01T17:56:26.125Z,16.20
2019-05-01T17:58:50.979Z,16.20
2019-05-01T18:01:37.536Z,16.10
2019-05-01T18:04:13.760Z,16.00
2019-05-01T18:06:46.624Z,16.00
2019-05-01T18:09:16.196Z,15.90
2019-05-01T18:11:47.475Z,15.80
2019-05-01T18:14:19.747Z,15.80
2019-05-01T18:16:48.378Z,15.70
2019-05-01T18:19:18.125Z,15.60
2019-05-01T18:21:51.927Z,15.60
2019-05-01T18:24:39.036Z,15.60
2019-05-01T18:27:18.960Z,15.50
2019-05-01T18:29:46.726Z,15.40
2019-05-01T18:32:19.812Z,15.30
2019-05-01T18:34:48.459Z,15.20
2019-05-01T18:37:24.653Z,15.20
2019-05-01T18:39:53.732Z,15.10
2019-05-01T18:42:22.389Z,15.10
2019-05-01T18:44:51.259Z,15.00
2019-05-01T18:47:20.390Z,14.90
2019-05-01T18:49:49.085Z,14.90
2019-05-01T18:52:18.572Z,14.80
2019-05-01T18:54:47.200Z,14.70
2019-05-01T18:57:15.938Z,14.70
2019-05-01T18:59:46.966Z,14.60
2019-05-01T19:02:15.777Z,14.60
2019-05-01T19:04:44.423Z,14.50
2019-05-01T19:07:13.553Z,14.40
2019-05-01T19:09:43.805Z,14.40
2019-05-01T19:12:16.682Z,14.30
2019-05-01T19:14:45.385Z,14.30
2019-05-01T19:17:14.723Z,14.30
2019-05-01T19:19:44.110Z,14.20
2019-05-01T19:22:14.413Z,14.20
2019-05-01T19:24:47.206Z,14.10
2019-05-01T19:27:18.928Z,14.00
2019-05-01T19:29:47.125Z,14.00
2019-05-01T19:32:18.761Z,13.90
2019-05-01T19:34:50.804Z,13.90
2019-05-01T19:37:21.826Z,13.80
2019-05-01T19:39:53.869Z,13.70
2019-05-01T19:42:23.682Z,13.70
2019-05-01T19:44:56.366Z,13.70
2019-05-01T19:47:23.423Z,13.60
2019-05-01T19:49:54.658Z,13.60
2019-05-01T19:52:24.434Z,13.50
2019-05-01T19:54:56.869Z,13.40
2019-05-01T19:57:25.839Z,13.40
2019-05-01T19:59:55.579Z,13.30
2019-05-01T20:02:27.790Z,13.30
2019-05-01T20:04:56.475Z,13.30
2019-05-01T20:07:25.270Z,13.30
2019-05-01T20:09:56.930Z,13.20
2019-05-01T20:12:24.309Z,13.10
2019-05-01T20:14:53.006Z,13.10
2019-05-01T20:17:21.778Z,13.10
2019-05-01T20:19:52.219Z,13.00
2019-05-01T20:22:22.537Z,13.00
2019-05-01T20:24:51.192Z,12.90
2019-05-01T20:27:19.844Z,12.90
2019-05-01T20:29:48.617Z,12.90
2019-05-01T20:32:21.111Z,12.80
2019-05-01T20:34:48.110Z,12.80
2019-05-01T20:37:17.796Z,12.70
2019-05-01T20:39:46.821Z,12.70
2019-05-01T20:42:16.011Z,12.60
2019-05-01T20:44:44.606Z,12.60
2019-05-01T20:47:13.266Z,12.50
2019-05-01T20:49:42.543Z,12.40
2019-05-01T20:52:11.304Z,12.40
2019-05-01T20:54:39.917Z,12.30
2019-05-01T20:57:13.600Z,12.30
2019-05-01T20:59:40.556Z,12.30
2019-05-01T21:02:09.433Z,12.20
2019-05-01T21:04:42.136Z,12.10
2019-05-01T21:07:24.350Z,12.10
2019-05-01T21:09:57.777Z,12.10
2019-05-01T21:12:27.510Z,12.00
2019-05-01T21:14:56.065Z,12.00
2019-05-01T21:17:24.648Z,11.90
2019-05-01T21:19:54.439Z,11.90
2019-05-01T21:22:23.489Z,11.90
2019-05-01T21:24:53.261Z,11.80
2019-05-01T21:27:22.006Z,11.80
2019-05-01T21:29:50.562Z,11.70
2019-05-01T21:32:26.175Z,11.70
2019-05-01T21:34:49.310Z,11.60
2019-05-01T21:37:17.872Z,11.60
2019-05-01T21:39:46.394Z,11.60
2019-05-01T21:42:15.891Z,11.60
2019-05-01T21:44:44.949Z,11.50
2019-05-01T21:47:14.036Z,11.50
2019-05-01T21:49:43.071Z,11.50
2019-05-01T21:52:13.488Z,11.40
2019-05-01T21:54:41.898Z,11.40
2019-05-01T21:57:11.969Z,11.40
2019-05-01T21:59:44.766Z,11.40
2019-05-01T22:02:12.006Z,11.30
2019-05-01T22:04:40.576Z,11.30
2019-05-01T22:07:09.498Z,11.20
2019-05-01T22:09:39.211Z,11.20
2019-05-01T22:12:08.232Z,11.20
2019-05-01T22:14:56.044Z,11.10
2019-05-01T22:17:44.181Z,11.10
2019-05-01T22:20:14.685Z,11.10
2019-05-01T22:22:53.854Z,11.00
2019-05-01T22:25:27.091Z,11.00
2019-05-01T22:27:57.379Z,10.90
2019-05-01T22:30:27.626Z,10.90
2019-05-01T22:32:58.122Z,10.80
2019-05-01T22:35:37.445Z,10.80
2019-05-01T22:38:07.647Z,10.70
2019-05-01T22:40:41.811Z,10.60
2019-05-01T22:43:10.405Z,10.60
2019-05-01T22:45:39.044Z,10.60
2019-05-01T22:48:07.791Z,10.50
2019-05-01T22:50:36.360Z,10.50
2019-05-01T22:53:07.834Z,10.40
2019-05-01T22:55:35.248Z,10.40
2019-05-01T22:58:03.897Z,10.40
2019-05-01T23:00:52.567Z,10.30
2019-05-01T23:03:22.930Z,10.30
2019-05-01T23:05:51.426Z,10.20
2019-05-01T23:08:20.031Z,10.20
2019-05-01T23:10:48.861Z,10.20
2019-05-01T23:13:17.447Z,10.10
2019-05-01T23:15:46.376Z,10.10
2019-05-01T23:18:15.746Z,10.00
2019-05-01T23:20:45.229Z,10.00
2019-05-01T23:23:13.908Z,9.90
2019-05-01T23:26:11.713Z,9.90
2019-05-01T23:28:40.916Z,9.80
2019-05-01T23:31:09.536Z,9.80
2019-05-01T23:33:38.014Z,9.70
2019-05-01T23:36:06.512Z,9.70
2019-05-01T23:38:35.024Z,9.60
2019-05-01T23:41:03.561Z,9.60
2019-05-01T23:43:32.066Z,9.50
2019-05-01T23:46:00.537Z,9.50
2019-05-01T23:48:29.051Z,9.50
2019-05-01T23:50:57.608Z,9.40
2019-05-01T23:53:26.182Z,9.40
2019-05-01T23:55:59.891Z,9.40
2019-05-01T23:58:24.948Z,9.30
